Sevilleta

Dec. 17, 2019, 2 p.m.

  • imperial
Air Temperature RH Wind Speed Wind Direction Precipitation Solar Radiation
Date Time Max Min Mean Max Min Max Mean Mean Total Total
US/Mountain F F F % % MPH MPH deg. in. MJ/m^2
2019-12-16 14:00 40.1 37.94 38.48 28.0 23.0 19.6 11.01 341.0 0.0 0.751
2019-12-16 15:00 39.2 37.22 37.76 26.0 23.0 18.41 10.4 344.0 0.0 0.608
2019-12-16 16:00 38.3 34.7 36.14 25.0 22.0 15.5 9.19 353.0 0.0 0.126
2019-12-16 17:00 33.26 31.64 32.54 27.0 26.0 13.6 8.21 356.0 0.0 0.002
2019-12-16 18:00 31.64 27.5 29.3 37.0 27.0 11.3 5.79 18.0 0.0 0.0
2019-12-16 19:00 26.24 24.44 25.16 44.0 39.0 6.89 4.0 56.0 0.0 0.0
2019-12-16 20:00 25.16 21.56 23.9 52.0 43.0 9.1 4.09 31.0 0.0 0.0
2019-12-16 21:00 23.0 20.12 21.38 59.0 51.0 5.5 3.31 36.0 0.0 0.0
2019-12-16 22:00 21.2 20.3 21.02 59.0 57.0 4.81 1.9 47.0 0.0 0.0
2019-12-16 23:00 21.92 14.54 18.14 74.0 56.0 5.1 3.8 132.0 0.0 0.0
2019-12-17 00:00 22.28 14.54 19.4 74.0 62.0 6.0 3.69 63.0 0.0 0.0
2019-12-17 01:00 20.3 17.6 18.86 72.0 68.0 4.41 3.4 88.0 0.0 0.0
2019-12-17 02:00 19.76 15.62 17.78 77.0 69.0 4.81 3.2 101.0 0.0 0.0
2019-12-17 03:00 19.76 19.04 19.4 70.0 67.0 4.3 2.1 68.0 0.0 0.0
2019-12-17 04:00 19.58 15.44 17.06 76.0 67.0 5.1 3.0 79.0 0.0 0.0
2019-12-17 05:00 17.24 14.72 15.98 78.0 73.0 4.09 2.8 82.0 0.0 0.0
2019-12-17 06:00 17.96 13.82 15.8 79.0 72.0 3.8 2.3 95.0 0.0 0.002
2019-12-17 07:00 18.68 14.18 15.98 79.0 73.0 4.21 2.91 60.0 0.0 0.202
2019-12-17 08:00 24.44 18.68 22.64 74.0 66.0 7.4 3.6 13.0 0.0 0.826
2019-12-17 09:00 26.96 25.34 26.06 62.0 52.0 11.01 6.11 20.0 0.0 1.39
2019-12-17 10:00 29.3 26.96 28.22 52.0 47.0 13.89 8.59 356.0 0.0 1.807
2019-12-17 11:00 31.1 29.3 30.38 47.0 43.0 16.11 9.1 346.0 0.0 2.012
2019-12-17 12:00 33.44 31.1 33.08 43.0 32.0 15.1 9.4 348.0 0.0 1.999
2019-12-17 13:00 34.88 33.98 34.34 32.0 31.0 13.51 8.01 335.0 0.0 1.773
2019-12-17 14:00 36.86 34.16 35.96 31.0 28.0 15.3 6.8 340.0 0.0 1.342

Data is presented as is, with no certification of correctness. DO NOT USE IN LEGAL PROCEEDINGS.